sensor_id;sensor_type;location;lat;lon;timestamp;P1;durP1;ratioP1;P2;durP2;ratioP2
59880;SDS011;45751;51.380;10.326;2023-02-15T00:02:00;11.57;;;3.13;;
59880;SDS011;45751;51.380;10.326;2023-02-15T00:04:27;9.32;;;2.80;;
59880;SDS011;45751;51.380;10.326;2023-02-15T00:07:13;11.23;;;3.00;;
59880;SDS011;45751;51.380;10.326;2023-02-15T00:09:41;9.15;;;2.78;;
59880;SDS011;45751;51.380;10.326;2023-02-15T00:12:08;7.85;;;2.78;;
59880;SDS011;45751;51.380;10.326;2023-02-15T00:14:36;9.52;;;3.42;;
59880;SDS011;45751;51.380;10.326;2023-02-15T00:17:03;8.73;;;3.83;;
59880;SDS011;45751;51.380;10.326;2023-02-15T00:19:30;8.02;;;3.13;;
59880;SDS011;45751;51.380;10.326;2023-02-15T00:21:57;10.65;;;3.75;;
59880;SDS011;45751;51.380;10.326;2023-02-15T00:24:24;7.35;;;3.17;;
59880;SDS011;45751;51.380;10.326;2023-02-15T00:26:51;11.52;;;2.75;;
59880;SDS011;45751;51.380;10.326;2023-02-15T00:29:18;10.65;;;3.33;;
59880;SDS011;45751;51.380;10.326;2023-02-15T00:31:46;7.40;;;3.47;;
59880;SDS011;45751;51.380;10.326;2023-02-15T00:34:18;9.43;;;3.20;;
59880;SDS011;45751;51.380;10.326;2023-02-15T00:36:50;9.27;;;3.45;;
59880;SDS011;45751;51.380;10.326;2023-02-15T00:39:17;6.97;;;2.45;;
59880;SDS011;45751;51.380;10.326;2023-02-15T00:41:45;8.85;;;2.63;;
59880;SDS011;45751;51.380;10.326;2023-02-15T00:44:13;9.63;;;3.45;;
59880;SDS011;45751;51.380;10.326;2023-02-15T00:46:41;10.52;;;3.08;;
59880;SDS011;45751;51.380;10.326;2023-02-15T00:49:08;7.57;;;3.53;;
59880;SDS011;45751;51.380;10.326;2023-02-15T00:51:36;10.32;;;5.03;;
59880;SDS011;45751;51.380;10.326;2023-02-15T00:54:04;7.60;;;2.83;;
59880;SDS011;45751;51.380;10.326;2023-02-15T00:56:31;9.95;;;3.40;;
59880;SDS011;45751;51.380;10.326;2023-02-15T00:58:58;8.88;;;2.72;;
59880;SDS011;45751;51.380;10.326;2023-02-15T01:01:24;8.23;;;3.22;;
59880;SDS011;45751;51.380;10.326;2023-02-15T01:03:52;9.82;;;3.38;;
59880;SDS011;45751;51.380;10.326;2023-02-15T01:06:19;10.13;;;2.63;;
59880;SDS011;45751;51.380;10.326;2023-02-15T01:08:46;6.43;;;2.28;;
59880;SDS011;45751;51.380;10.326;2023-02-15T01:11:14;6.68;;;2.58;;
59880;SDS011;45751;51.380;10.326;2023-02-15T01:13:50;9.13;;;1.63;;
59880;SDS011;45751;51.380;10.326;2023-02-15T01:16:19;9.95;;;3.10;;
59880;SDS011;45751;51.380;10.326;2023-02-15T01:18:47;10.48;;;2.95;;
59880;SDS011;45751;51.380;10.326;2023-02-15T01:21:19;5.57;;;1.90;;
59880;SDS011;45751;51.380;10.326;2023-02-15T01:23:48;8.60;;;2.92;;
59880;SDS011;45751;51.380;10.326;2023-02-15T01:26:15;8.77;;;3.00;;
59880;SDS011;45751;51.380;10.326;2023-02-15T01:28:43;7.68;;;2.35;;
59880;SDS011;45751;51.380;10.326;2023-02-15T01:31:11;6.90;;;3.10;;
59880;SDS011;45751;51.380;10.326;2023-02-15T01:33:40;7.88;;;2.38;;
59880;SDS011;45751;51.380;10.326;2023-02-15T01:36:08;8.02;;;2.90;;
59880;SDS011;45751;51.380;10.326;2023-02-15T01:38:37;10.10;;;2.67;;
59880;SDS011;45751;51.380;10.326;2023-02-15T01:41:06;7.82;;;2.85;;
59880;SDS011;45751;51.380;10.326;2023-02-15T01:43:51;5.88;;;2.22;;
59880;SDS011;45751;51.380;10.326;2023-02-15T01:46:27;5.95;;;2.42;;
59880;SDS011;45751;51.380;10.326;2023-02-15T01:49:03;7.15;;;3.28;;
59880;SDS011;45751;51.380;10.326;2023-02-15T01:51:36;5.65;;;2.40;;
59880;SDS011;45751;51.380;10.326;2023-02-15T01:54:09;7.57;;;2.67;;
59880;SDS011;45751;51.380;10.326;2023-02-15T01:56:41;6.93;;;2.83;;
59880;SDS011;45751;51.380;10.326;2023-02-15T01:59:12;9.55;;;3.17;;
59880;SDS011;45751;51.380;10.326;2023-02-15T02:01:43;8.18;;;3.33;;
59880;SDS011;45751;51.380;10.326;2023-02-15T02:04:24;7.90;;;3.00;;
59880;SDS011;45751;51.380;10.326;2023-02-15T02:06:57;8.15;;;3.55;;
59880;SDS011;45751;51.380;10.326;2023-02-15T02:09:25;6.07;;;2.60;;
59880;SDS011;45751;51.380;10.326;2023-02-15T02:11:53;7.88;;;2.55;;
59880;SDS011;45751;51.380;10.326;2023-02-15T02:14:20;9.15;;;3.00;;
59880;SDS011;45751;51.380;10.326;2023-02-15T02:16:54;6.40;;;2.17;;
59880;SDS011;45751;51.380;10.326;2023-02-15T02:22:29;8.52;;;2.80;;
59880;SDS011;45751;51.380;10.326;2023-02-15T02:28:53;4.72;;;1.67;;
59880;SDS011;45751;51.380;10.326;2023-02-15T02:34:41;5.95;;;1.95;;
59880;SDS011;45751;51.380;10.326;2023-02-15T02:43:16;6.35;;;2.60;;
59880;SDS011;45751;51.380;10.326;2023-02-15T02:45:50;7.30;;;2.70;;
59880;SDS011;45751;51.380;10.326;2023-02-15T02:48:27;5.75;;;1.90;;
59880;SDS011;45751;51.380;10.326;2023-02-15T02:50:58;7.85;;;2.30;;
59880;SDS011;45751;51.380;10.326;2023-02-15T02:53:26;5.72;;;2.22;;
59880;SDS011;45751;51.380;10.326;2023-02-15T02:55:58;6.50;;;2.50;;
59880;SDS011;45751;51.380;10.326;2023-02-15T03:01:52;6.30;;;2.45;;
59880;SDS011;45751;51.380;10.326;2023-02-15T03:04:29;5.97;;;2.55;;
59880;SDS011;45751;51.380;10.326;2023-02-15T03:07:03;6.60;;;2.33;;
59880;SDS011;45751;51.380;10.326;2023-02-15T03:09:41;6.20;;;1.70;;
59880;SDS011;45751;51.380;10.326;2023-02-15T03:12:13;5.88;;;1.55;;
59880;SDS011;45751;51.380;10.326;2023-02-15T03:14:53;5.75;;;2.03;;
59880;SDS011;45751;51.380;10.326;2023-02-15T03:17:31;5.57;;;1.90;;
59880;SDS011;45751;51.380;10.326;2023-02-15T03:20:08;7.47;;;2.67;;
59880;SDS011;45751;51.380;10.326;2023-02-15T03:22:46;7.28;;;2.28;;
59880;SDS011;45751;51.380;10.326;2023-02-15T03:25:19;5.88;;;2.45;;
59880;SDS011;45751;51.380;10.326;2023-02-15T03:27:52;8.30;;;2.20;;
59880;SDS011;45751;51.380;10.326;2023-02-15T03:30:24;4.85;;;1.50;;
59880;SDS011;45751;51.380;10.326;2023-02-15T03:32:54;7.13;;;2.35;;
59880;SDS011;45751;51.380;10.326;2023-02-15T03:35:24;7.35;;;2.60;;
59880;SDS011;45751;51.380;10.326;2023-02-15T03:37:57;8.30;;;2.30;;
59880;SDS011;45751;51.380;10.326;2023-02-15T03:40:34;6.45;;;1.88;;
59880;SDS011;45751;51.380;10.326;2023-02-15T03:43:28;6.82;;;2.53;;
59880;SDS011;45751;51.380;10.326;2023-02-15T03:46:27;7.38;;;2.95;;
59880;SDS011;45751;51.380;10.326;2023-02-15T03:49:42;9.25;;;3.08;;
59880;SDS011;45751;51.380;10.326;2023-02-15T03:52:19;8.45;;;3.20;;
59880;SDS011;45751;51.380;10.326;2023-02-15T03:54:50;10.60;;;3.40;;
59880;SDS011;45751;51.380;10.326;2023-02-15T04:00:11;8.20;;;2.80;;
59880;SDS011;45751;51.380;10.326;2023-02-15T04:06:01;10.32;;;3.75;;
59880;SDS011;45751;51.380;10.326;2023-02-15T04:08:29;9.75;;;2.80;;
59880;SDS011;45751;51.380;10.326;2023-02-15T04:11:14;8.95;;;2.17;;
59880;SDS011;45751;51.380;10.326;2023-02-15T04:13:41;7.93;;;2.95;;
59880;SDS011;45751;51.380;10.326;2023-02-15T04:16:08;9.60;;;3.33;;
59880;SDS011;45751;51.380;10.326;2023-02-15T04:18:38;7.30;;;2.95;;
59880;SDS011;45751;51.380;10.326;2023-02-15T04:21:26;9.90;;;3.30;;
59880;SDS011;45751;51.380;10.326;2023-02-15T04:24:15;6.55;;;2.08;;
59880;SDS011;45751;51.380;10.326;2023-02-15T04:27:00;7.72;;;2.20;;
59880;SDS011;45751;51.380;10.326;2023-02-15T04:29:29;7.68;;;3.05;;
59880;SDS011;45751;51.380;10.326;2023-02-15T04:31:58;13.88;;;2.30;;
59880;SDS011;45751;51.380;10.326;2023-02-15T04:34:26;7.95;;;3.58;;
59880;SDS011;45751;51.380;10.326;2023-02-15T04:36:53;6.43;;;2.65;;
59880;SDS011;45751;51.380;10.326;2023-02-15T04:39:19;5.55;;;1.92;;
59880;SDS011;45751;51.380;10.326;2023-02-15T04:41:47;6.03;;;2.20;;
59880;SDS011;45751;51.380;10.326;2023-02-15T04:44:14;8.52;;;3.40;;
59880;SDS011;45751;51.380;10.326;2023-02-15T04:46:41;8.07;;;3.42;;
59880;SDS011;45751;51.380;10.326;2023-02-15T04:49:08;6.90;;;2.33;;
59880;SDS011;45751;51.380;10.326;2023-02-15T04:51:35;10.25;;;3.55;;
59880;SDS011;45751;51.380;10.326;2023-02-15T04:54:02;12.98;;;3.42;;
59880;SDS011;45751;51.380;10.326;2023-02-15T04:56:29;6.90;;;2.40;;
59880;SDS011;45751;51.380;10.326;2023-02-15T04:58:57;9.60;;;2.90;;
59880;SDS011;45751;51.380;10.326;2023-02-15T05:01:24;5.65;;;1.98;;
59880;SDS011;45751;51.380;10.326;2023-02-15T05:03:51;6.72;;;2.67;;
59880;SDS011;45751;51.380;10.326;2023-02-15T05:06:18;7.75;;;3.10;;
59880;SDS011;45751;51.380;10.326;2023-02-15T05:08:44;9.50;;;3.33;;
59880;SDS011;45751;51.380;10.326;2023-02-15T05:11:11;5.85;;;2.15;;
59880;SDS011;45751;51.380;10.326;2023-02-15T05:13:38;8.82;;;3.47;;
59880;SDS011;45751;51.380;10.326;2023-02-15T05:16:06;7.75;;;2.42;;
59880;SDS011;45751;51.380;10.326;2023-02-15T05:18:32;6.93;;;2.80;;
59880;SDS011;45751;51.380;10.326;2023-02-15T05:21:00;6.15;;;1.83;;
59880;SDS011;45751;51.380;10.326;2023-02-15T05:23:26;9.40;;;3.03;;
59880;SDS011;45751;51.380;10.326;2023-02-15T05:25:53;6.47;;;2.03;;
59880;SDS011;45751;51.380;10.326;2023-02-15T05:28:39;6.90;;;2.35;;
59880;SDS011;45751;51.380;10.326;2023-02-15T05:31:07;5.15;;;2.05;;
59880;SDS011;45751;51.380;10.326;2023-02-15T05:33:37;10.65;;;2.70;;
59880;SDS011;45751;51.380;10.326;2023-02-15T05:36:04;6.20;;;2.22;;
59880;SDS011;45751;51.380;10.326;2023-02-15T05:38:32;6.80;;;2.20;;
59880;SDS011;45751;51.380;10.326;2023-02-15T05:40:59;6.03;;;2.30;;
59880;SDS011;45751;51.380;10.326;2023-02-15T05:43:26;11.02;;;3.17;;
59880;SDS011;45751;51.380;10.326;2023-02-15T05:45:54;8.73;;;3.25;;
59880;SDS011;45751;51.380;10.326;2023-02-15T05:48:22;8.23;;;2.97;;
59880;SDS011;45751;51.380;10.326;2023-02-15T05:50:56;5.43;;;1.73;;
59880;SDS011;45751;51.380;10.326;2023-02-15T05:53:27;8.77;;;2.55;;
59880;SDS011;45751;51.380;10.326;2023-02-15T05:55:55;6.93;;;3.30;;
59880;SDS011;45751;51.380;10.326;2023-02-15T05:58:26;7.13;;;3.15;;
59880;SDS011;45751;51.380;10.326;2023-02-15T06:01:14;7.22;;;2.60;;
59880;SDS011;45751;51.380;10.326;2023-02-15T06:03:43;6.72;;;2.58;;
59880;SDS011;45751;51.380;10.326;2023-02-15T06:06:11;6.20;;;2.28;;
59880;SDS011;45751;51.380;10.326;2023-02-15T06:08:38;8.70;;;3.58;;
59880;SDS011;45751;51.380;10.326;2023-02-15T06:11:06;7.47;;;3.10;;
59880;SDS011;45751;51.380;10.326;2023-02-15T06:13:33;8.38;;;2.67;;
59880;SDS011;45751;51.380;10.326;2023-02-15T06:16:04;7.43;;;2.13;;
59880;SDS011;45751;51.380;10.326;2023-02-15T06:18:31;8.25;;;2.58;;
59880;SDS011;45751;51.380;10.326;2023-02-15T06:20:59;12.40;;;6.22;;
59880;SDS011;45751;51.380;10.326;2023-02-15T06:23:25;9.20;;;4.20;;
59880;SDS011;45751;51.380;10.326;2023-02-15T06:25:53;7.88;;;2.63;;
59880;SDS011;45751;51.380;10.326;2023-02-15T06:28:20;6.07;;;2.22;;
59880;SDS011;45751;51.380;10.326;2023-02-15T06:30:47;10.38;;;3.10;;
59880;SDS011;45751;51.380;10.326;2023-02-15T06:33:14;6.55;;;2.63;;
59880;SDS011;45751;51.380;10.326;2023-02-15T06:35:41;4.60;;;1.92;;
59880;SDS011;45751;51.380;10.326;2023-02-15T06:38:07;5.40;;;1.85;;
59880;SDS011;45751;51.380;10.326;2023-02-15T06:40:35;8.27;;;3.67;;
59880;SDS011;45751;51.380;10.326;2023-02-15T06:43:02;6.57;;;2.53;;
59880;SDS011;45751;51.380;10.326;2023-02-15T06:45:30;6.50;;;2.58;;
59880;SDS011;45751;51.380;10.326;2023-02-15T06:47:57;9.45;;;2.45;;
59880;SDS011;45751;51.380;10.326;2023-02-15T06:50:23;9.05;;;2.55;;
59880;SDS011;45751;51.380;10.326;2023-02-15T06:52:55;10.40;;;2.97;;
59880;SDS011;45751;51.380;10.326;2023-02-15T06:55:23;6.70;;;2.85;;
59880;SDS011;45751;51.380;10.326;2023-02-15T06:57:49;4.78;;;1.83;;
59880;SDS011;45751;51.380;10.326;2023-02-15T07:00:16;10.38;;;3.38;;
59880;SDS011;45751;51.380;10.326;2023-02-15T07:02:44;7.95;;;3.33;;
59880;SDS011;45751;51.380;10.326;2023-02-15T07:05:11;10.20;;;3.80;;
59880;SDS011;45751;51.380;10.326;2023-02-15T07:07:38;6.97;;;2.85;;
59880;SDS011;45751;51.380;10.326;2023-02-15T07:10:05;12.27;;;3.30;;
59880;SDS011;45751;51.380;10.326;2023-02-15T07:12:32;7.75;;;2.90;;
59880;SDS011;45751;51.380;10.326;2023-02-15T07:15:09;6.88;;;1.65;;
59880;SDS011;45751;51.380;10.326;2023-02-15T07:17:37;13.75;;;2.83;;
59880;SDS011;45751;51.380;10.326;2023-02-15T07:20:05;7.95;;;2.90;;
59880;SDS011;45751;51.380;10.326;2023-02-15T07:22:37;8.02;;;3.58;;
59880;SDS011;45751;51.380;10.326;2023-02-15T07:25:04;8.45;;;2.95;;
59880;SDS011;45751;51.380;10.326;2023-02-15T07:27:33;11.95;;;3.90;;
59880;SDS011;45751;51.380;10.326;2023-02-15T07:30:00;7.28;;;2.65;;
59880;SDS011;45751;51.380;10.326;2023-02-15T07:32:29;8.35;;;3.42;;
59880;SDS011;45751;51.380;10.326;2023-02-15T07:34:58;9.07;;;3.78;;
59880;SDS011;45751;51.380;10.326;2023-02-15T07:37:25;11.30;;;2.78;;
59880;SDS011;45751;51.380;10.326;2023-02-15T07:39:53;7.45;;;2.42;;
59880;SDS011;45751;51.380;10.326;2023-02-15T07:42:20;9.50;;;2.83;;
59880;SDS011;45751;51.380;10.326;2023-02-15T07:44:48;6.30;;;1.92;;
59880;SDS011;45751;51.380;10.326;2023-02-15T07:47:15;5.63;;;2.40;;
59880;SDS011;45751;51.380;10.326;2023-02-15T07:49:42;5.20;;;2.08;;
59880;SDS011;45751;51.380;10.326;2023-02-15T07:52:09;4.00;;;1.52;;
59880;SDS011;45751;51.380;10.326;2023-02-15T07:54:35;6.43;;;2.75;;
59880;SDS011;45751;51.380;10.326;2023-02-15T07:57:02;5.75;;;2.25;;
59880;SDS011;45751;51.380;10.326;2023-02-15T07:59:29;5.20;;;1.92;;
59880;SDS011;45751;51.380;10.326;2023-02-15T08:01:56;5.15;;;1.67;;
59880;SDS011;45751;51.380;10.326;2023-02-15T08:04:23;4.20;;;1.45;;
59880;SDS011;45751;51.380;10.326;2023-02-15T08:06:53;6.57;;;2.60;;
59880;SDS011;45751;51.380;10.326;2023-02-15T08:09:21;6.53;;;2.00;;
59880;SDS011;45751;51.380;10.326;2023-02-15T08:11:48;6.07;;;1.83;;
59880;SDS011;45751;51.380;10.326;2023-02-15T08:14:16;4.55;;;1.52;;
59880;SDS011;45751;51.380;10.326;2023-02-15T08:16:45;6.32;;;1.88;;
59880;SDS011;45751;51.380;10.326;2023-02-15T08:19:14;5.45;;;2.10;;
59880;SDS011;45751;51.380;10.326;2023-02-15T08:24:13;6.22;;;2.38;;
59880;SDS011;45751;51.380;10.326;2023-02-15T08:26:47;6.57;;;1.77;;
59880;SDS011;45751;51.380;10.326;2023-02-15T08:29:15;6.68;;;2.10;;
59880;SDS011;45751;51.380;10.326;2023-02-15T08:31:46;5.72;;;1.98;;
59880;SDS011;45751;51.380;10.326;2023-02-15T08:34:15;6.55;;;2.03;;
59880;SDS011;45751;51.380;10.326;2023-02-15T08:36:44;5.60;;;1.60;;
59880;SDS011;45751;51.380;10.326;2023-02-15T08:39:12;7.35;;;1.73;;
59880;SDS011;45751;51.380;10.326;2023-02-15T08:41:44;6.50;;;2.28;;
59880;SDS011;45751;51.380;10.326;2023-02-15T08:44:14;7.10;;;2.08;;
59880;SDS011;45751;51.380;10.326;2023-02-15T08:46:45;8.32;;;2.70;;
59880;SDS011;45751;51.380;10.326;2023-02-15T08:49:20;6.50;;;2.00;;
59880;SDS011;45751;51.380;10.326;2023-02-15T08:51:48;5.07;;;1.65;;
59880;SDS011;45751;51.380;10.326;2023-02-15T08:54:17;6.80;;;1.88;;
59880;SDS011;45751;51.380;10.326;2023-02-15T08:56:45;8.35;;;3.42;;
59880;SDS011;45751;51.380;10.326;2023-02-15T08:59:22;8.75;;;2.95;;
59880;SDS011;45751;51.380;10.326;2023-02-15T09:01:50;7.53;;;3.53;;
59880;SDS011;45751;51.380;10.326;2023-02-15T09:04:18;10.75;;;2.95;;
59880;SDS011;45751;51.380;10.326;2023-02-15T09:06:46;7.47;;;2.45;;
59880;SDS011;45751;51.380;10.326;2023-02-15T09:09:15;7.57;;;2.55;;
59880;SDS011;45751;51.380;10.326;2023-02-15T09:11:46;4.97;;;1.95;;
59880;SDS011;45751;51.380;10.326;2023-02-15T09:14:20;6.85;;;2.55;;
59880;SDS011;45751;51.380;10.326;2023-02-15T09:16:48;5.22;;;1.95;;
59880;SDS011;45751;51.380;10.326;2023-02-15T09:19:18;9.48;;;2.53;;
59880;SDS011;45751;51.380;10.326;2023-02-15T09:21:46;8.25;;;2.72;;
59880;SDS011;45751;51.380;10.326;2023-02-15T09:24:14;9.77;;;2.83;;
59880;SDS011;45751;51.380;10.326;2023-02-15T09:26:43;5.40;;;1.90;;
59880;SDS011;45751;51.380;10.326;2023-02-15T09:29:11;6.53;;;2.10;;
59880;SDS011;45751;51.380;10.326;2023-02-15T09:31:43;3.25;;;1.08;;
59880;SDS011;45751;51.380;10.326;2023-02-15T09:34:13;6.97;;;2.67;;
59880;SDS011;45751;51.380;10.326;2023-02-15T09:36:43;6.38;;;2.58;;
59880;SDS011;45751;51.380;10.326;2023-02-15T09:39:21;6.55;;;2.35;;
59880;SDS011;45751;51.380;10.326;2023-02-15T09:52:46;6.35;;;2.05;;
59880;SDS011;45751;51.380;10.326;2023-02-15T09:56:06;5.03;;;1.92;;
59880;SDS011;45751;51.380;10.326;2023-02-15T10:04:05;7.88;;;2.53;;
59880;SDS011;45751;51.380;10.326;2023-02-15T10:06:46;6.13;;;2.25;;
59880;SDS011;45751;51.380;10.326;2023-02-15T10:17:40;6.75;;;2.78;;
59880;SDS011;45751;51.380;10.326;2023-02-15T10:28:23;6.68;;;2.97;;
59880;SDS011;45751;51.380;10.326;2023-02-15T10:31:15;8.75;;;3.35;;
59880;SDS011;45751;51.380;10.326;2023-02-15T10:34:11;8.15;;;2.55;;
59880;SDS011;45751;51.380;10.326;2023-02-15T10:40:15;9.45;;;3.35;;
59880;SDS011;45751;51.380;10.326;2023-02-15T10:55:42;11.23;;;5.22;;
59880;SDS011;45751;51.380;10.326;2023-02-15T10:58:44;9.35;;;3.00;;
59880;SDS011;45751;51.380;10.326;2023-02-15T11:09:53;9.63;;;3.15;;
59880;SDS011;45751;51.380;10.326;2023-02-15T11:12:33;7.90;;;3.30;;
59880;SDS011;45751;51.380;10.326;2023-02-15T11:17:38;8.07;;;3.60;;
59880;SDS011;45751;51.380;10.326;2023-02-15T11:22:48;9.85;;;3.78;;
59880;SDS011;45751;51.380;10.326;2023-02-15T11:25:24;9.57;;;3.20;;
59880;SDS011;45751;51.380;10.326;2023-02-15T11:27:54;10.23;;;3.53;;
59880;SDS011;45751;51.380;10.326;2023-02-15T11:30:23;8.88;;;2.90;;
59880;SDS011;45751;51.380;10.326;2023-02-15T11:32:55;13.45;;;3.85;;
59880;SDS011;45751;51.380;10.326;2023-02-15T11:35:36;11.45;;;3.50;;
59880;SDS011;45751;51.380;10.326;2023-02-15T11:38:13;10.80;;;4.40;;
59880;SDS011;45751;51.380;10.326;2023-02-15T11:41:03;8.05;;;3.40;;
59880;SDS011;45751;51.380;10.326;2023-02-15T11:43:39;13.17;;;3.87;;
59880;SDS011;45751;51.380;10.326;2023-02-15T11:46:16;9.43;;;4.18;;
59880;SDS011;45751;51.380;10.326;2023-02-15T11:48:44;12.25;;;4.03;;
59880;SDS011;45751;51.380;10.326;2023-02-15T11:51:13;15.75;;;4.50;;
59880;SDS011;45751;51.380;10.326;2023-02-15T11:53:43;12.73;;;5.18;;
59880;SDS011;45751;51.380;10.326;2023-02-15T11:56:19;9.35;;;4.25;;
59880;SDS011;45751;51.380;10.326;2023-02-15T11:58:50;20.35;;;5.97;;
59880;SDS011;45751;51.380;10.326;2023-02-15T12:01:31;11.23;;;4.88;;
59880;SDS011;45751;51.380;10.326;2023-02-15T12:06:52;18.77;;;5.32;;
59880;SDS011;45751;51.380;10.326;2023-02-15T12:09:34;19.27;;;6.00;;
59880;SDS011;45751;51.380;10.326;2023-02-15T12:12:20;16.70;;;5.78;;
59880;SDS011;45751;51.380;10.326;2023-02-15T12:14:53;17.17;;;5.80;;
59880;SDS011;45751;51.380;10.326;2023-02-15T12:17:23;17.00;;;7.85;;
59880;SDS011;45751;51.380;10.326;2023-02-15T12:19:56;16.65;;;5.28;;
59880;SDS011;45751;51.380;10.326;2023-02-15T12:22:29;14.23;;;7.45;;
59880;SDS011;45751;51.380;10.326;2023-02-15T12:24:59;15.82;;;5.70;;
59880;SDS011;45751;51.380;10.326;2023-02-15T12:27:29;14.13;;;6.70;;
59880;SDS011;45751;51.380;10.326;2023-02-15T12:29:59;14.35;;;5.82;;
59880;SDS011;45751;51.380;10.326;2023-02-15T12:32:53;13.75;;;6.75;;
59880;SDS011;45751;51.380;10.326;2023-02-15T12:35:33;18.88;;;6.47;;
59880;SDS011;45751;51.380;10.326;2023-02-15T12:38:45;14.35;;;5.25;;
59880;SDS011;45751;51.380;10.326;2023-02-15T12:40:58;18.60;;;7.25;;
59880;SDS011;45751;51.380;10.326;2023-02-15T12:43:45;14.32;;;6.45;;
59880;SDS011;45751;51.380;10.326;2023-02-15T12:46:13;16.27;;;5.45;;
59880;SDS011;45751;51.380;10.326;2023-02-15T12:51:57;12.75;;;6.28;;
59880;SDS011;45751;51.380;10.326;2023-02-15T12:54:30;19.88;;;6.32;;
59880;SDS011;45751;51.380;10.326;2023-02-15T12:59:52;20.27;;;8.38;;
59880;SDS011;45751;51.380;10.326;2023-02-15T13:02:26;19.15;;;7.65;;
59880;SDS011;45751;51.380;10.326;2023-02-15T13:08:12;23.00;;;6.72;;
59880;SDS011;45751;51.380;10.326;2023-02-15T13:10:52;17.65;;;7.07;;
59880;SDS011;45751;51.380;10.326;2023-02-15T13:13:25;15.90;;;6.63;;
59880;SDS011;45751;51.380;10.326;2023-02-15T13:16:13;19.23;;;7.72;;
59880;SDS011;45751;51.380;10.326;2023-02-15T13:18:44;19.80;;;6.40;;
59880;SDS011;45751;51.380;10.326;2023-02-15T13:21:14;15.38;;;5.82;;
59880;SDS011;45751;51.380;10.326;2023-02-15T13:23:46;19.58;;;6.95;;
59880;SDS011;45751;51.380;10.326;2023-02-15T13:26:16;17.70;;;7.20;;
59880;SDS011;45751;51.380;10.326;2023-02-15T13:28:47;20.55;;;7.43;;
59880;SDS011;45751;51.380;10.326;2023-02-15T13:31:20;17.03;;;7.03;;
59880;SDS011;45751;51.380;10.326;2023-02-15T13:33:51;26.35;;;8.80;;
59880;SDS011;45751;51.380;10.326;2023-02-15T13:36:22;20.80;;;7.47;;
59880;SDS011;45751;51.380;10.326;2023-02-15T13:38:58;19.15;;;7.22;;
59880;SDS011;45751;51.380;10.326;2023-02-15T13:42:01;25.02;;;7.70;;
59880;SDS011;45751;51.380;10.326;2023-02-15T14:01:08;18.00;;;6.47;;
59880;SDS011;45751;51.380;10.326;2023-02-15T14:06:37;18.85;;;7.30;;
59880;SDS011;45751;51.380;10.326;2023-02-15T14:09:15;16.75;;;8.75;;
59880;SDS011;45751;51.380;10.326;2023-02-15T14:17:44;20.83;;;7.25;;
59880;SDS011;45751;51.380;10.326;2023-02-15T14:23:03;19.80;;;7.88;;
59880;SDS011;45751;51.380;10.326;2023-02-15T14:25:55;19.38;;;7.13;;
59880;SDS011;45751;51.380;10.326;2023-02-15T14:31:33;18.63;;;6.78;;
59880;SDS011;45751;51.380;10.326;2023-02-15T14:34:07;20.23;;;6.35;;
59880;SDS011;45751;51.380;10.326;2023-02-15T14:37:03;18.27;;;7.75;;
59880;SDS011;45751;51.380;10.326;2023-02-15T14:45:38;20.73;;;8.45;;
59880;SDS011;45751;51.380;10.326;2023-02-15T14:48:41;20.50;;;6.22;;
59880;SDS011;45751;51.380;10.326;2023-02-15T14:56:44;18.67;;;7.30;;
59880;SDS011;45751;51.380;10.326;2023-02-15T15:01:55;24.63;;;9.65;;
59880;SDS011;45751;51.380;10.326;2023-02-15T15:04:52;17.83;;;7.60;;
59880;SDS011;45751;51.380;10.326;2023-02-15T15:07:25;29.05;;;8.77;;
59880;SDS011;45751;51.380;10.326;2023-02-15T15:12:47;21.67;;;7.30;;
59880;SDS011;45751;51.380;10.326;2023-02-15T15:18:04;22.02;;;7.72;;
59880;SDS011;45751;51.380;10.326;2023-02-15T15:20:47;25.08;;;8.55;;
59880;SDS011;45751;51.380;10.326;2023-02-15T15:25:58;38.78;;;13.73;;
59880;SDS011;45751;51.380;10.326;2023-02-15T15:50:32;19.98;;;7.63;;
59880;SDS011;45751;51.380;10.326;2023-02-15T15:53:01;23.75;;;7.60;;
59880;SDS011;45751;51.380;10.326;2023-02-15T15:55:30;21.02;;;8.10;;
59880;SDS011;45751;51.380;10.326;2023-02-15T15:58:02;25.77;;;7.93;;
59880;SDS011;45751;51.380;10.326;2023-02-15T16:00:46;28.10;;;8.57;;
59880;SDS011;45751;51.380;10.326;2023-02-15T16:05:50;20.60;;;7.03;;
59880;SDS011;45751;51.380;10.326;2023-02-15T16:11:09;23.38;;;7.63;;
59880;SDS011;45751;51.380;10.326;2023-02-15T16:13:41;23.40;;;7.80;;
59880;SDS011;45751;51.380;10.326;2023-02-15T16:16:08;21.35;;;7.43;;
59880;SDS011;45751;51.380;10.326;2023-02-15T16:18:39;25.70;;;8.93;;
59880;SDS011;45751;51.380;10.326;2023-02-15T16:21:13;29.02;;;8.57;;
59880;SDS011;45751;51.380;10.326;2023-02-15T16:29:46;21.73;;;8.10;;
59880;SDS011;45751;51.380;10.326;2023-02-15T16:32:18;22.05;;;7.72;;
59880;SDS011;45751;51.380;10.326;2023-02-15T16:37:33;18.48;;;7.60;;
59880;SDS011;45751;51.380;10.326;2023-02-15T16:40:00;18.98;;;7.05;;
59880;SDS011;45751;51.380;10.326;2023-02-15T16:42:28;21.63;;;7.15;;
59880;SDS011;45751;51.380;10.326;2023-02-15T16:45:29;22.70;;;7.93;;
59880;SDS011;45751;51.380;10.326;2023-02-15T16:47:55;25.98;;;8.68;;
59880;SDS011;45751;51.380;10.326;2023-02-15T16:50:28;26.15;;;8.93;;
59880;SDS011;45751;51.380;10.326;2023-02-15T16:53:04;20.67;;;8.05;;
59880;SDS011;45751;51.380;10.326;2023-02-15T16:55:38;23.83;;;8.32;;
59880;SDS011;45751;51.380;10.326;2023-02-15T16:58:13;27.58;;;8.60;;
59880;SDS011;45751;51.380;10.326;2023-02-15T17:00:47;25.08;;;7.93;;
59880;SDS011;45751;51.380;10.326;2023-02-15T17:03:21;21.67;;;7.57;;
59880;SDS011;45751;51.380;10.326;2023-02-15T17:05:56;21.35;;;8.57;;
59880;SDS011;45751;51.380;10.326;2023-02-15T17:08:34;25.40;;;7.82;;
59880;SDS011;45751;51.380;10.326;2023-02-15T17:11:20;19.65;;;8.20;;
59880;SDS011;45751;51.380;10.326;2023-02-15T17:19:17;22.95;;;8.50;;
59880;SDS011;45751;51.380;10.326;2023-02-15T17:21:56;22.67;;;9.40;;
59880;SDS011;45751;51.380;10.326;2023-02-15T17:24:28;31.33;;;12.55;;
59880;SDS011;45751;51.380;10.326;2023-02-15T17:27:13;34.67;;;15.40;;
59880;SDS011;45751;51.380;10.326;2023-02-15T17:29:51;45.45;;;18.77;;
59880;SDS011;45751;51.380;10.326;2023-02-15T17:32:23;52.45;;;18.63;;
59880;SDS011;45751;51.380;10.326;2023-02-15T17:35:00;49.70;;;19.67;;
59880;SDS011;45751;51.380;10.326;2023-02-15T17:40:23;23.88;;;10.82;;
59880;SDS011;45751;51.380;10.326;2023-02-15T17:42:52;27.55;;;10.98;;
59880;SDS011;45751;51.380;10.326;2023-02-15T17:45:20;25.75;;;9.35;;
59880;SDS011;45751;51.380;10.326;2023-02-15T17:47:48;22.90;;;9.38;;
59880;SDS011;45751;51.380;10.326;2023-02-15T17:50:25;28.52;;;8.98;;
59880;SDS011;45751;51.380;10.326;2023-02-15T17:52:54;27.70;;;9.18;;
59880;SDS011;45751;51.380;10.326;2023-02-15T17:55:23;26.15;;;8.98;;
59880;SDS011;45751;51.380;10.326;2023-02-15T17:58:07;22.50;;;7.35;;
59880;SDS011;45751;51.380;10.326;2023-02-15T18:00:35;30.75;;;12.55;;
59880;SDS011;45751;51.380;10.326;2023-02-15T18:03:24;27.25;;;11.57;;
59880;SDS011;45751;51.380;10.326;2023-02-15T18:06:18;20.58;;;6.90;;
59880;SDS011;45751;51.380;10.326;2023-02-15T18:09:04;21.80;;;7.22;;
59880;SDS011;45751;51.380;10.326;2023-02-15T18:11:50;20.92;;;7.95;;
59880;SDS011;45751;51.380;10.326;2023-02-15T18:14:17;22.17;;;8.98;;
59880;SDS011;45751;51.380;10.326;2023-02-15T18:16:44;22.55;;;6.78;;
59880;SDS011;45751;51.380;10.326;2023-02-15T18:19:15;29.10;;;9.13;;
59880;SDS011;45751;51.380;10.326;2023-02-15T18:21:48;18.83;;;7.60;;